sensor_id;sensor_type;location;lat;lon;timestamp;P1;durP1;ratioP1;P2;durP2;ratioP2
20173;SDS011;10246;50.620;7.232;2022-10-16T00:00:47;1.87;;;1.77;;
20173;SDS011;10246;50.620;7.232;2022-10-16T00:03:15;1.83;;;1.63;;
20173;SDS011;10246;50.620;7.232;2022-10-16T00:05:42;4.23;;;2.20;;
20173;SDS011;10246;50.620;7.232;2022-10-16T00:08:10;3.37;;;2.00;;
20173;SDS011;10246;50.620;7.232;2022-10-16T00:10:38;2.57;;;1.87;;
20173;SDS011;10246;50.620;7.232;2022-10-16T00:13:05;2.27;;;1.60;;
20173;SDS011;10246;50.620;7.232;2022-10-16T00:15:33;3.83;;;2.30;;
20173;SDS011;10246;50.620;7.232;2022-10-16T00:18:02;3.17;;;1.60;;
20173;SDS011;10246;50.620;7.232;2022-10-16T00:20:30;3.73;;;1.73;;
20173;SDS011;10246;50.620;7.232;2022-10-16T00:23:01;1.63;;;1.47;;
20173;SDS011;10246;50.620;7.232;2022-10-16T00:25:29;1.30;;;1.20;;
20173;SDS011;10246;50.620;7.232;2022-10-16T00:27:57;2.87;;;1.50;;
20173;SDS011;10246;50.620;7.232;2022-10-16T00:30:24;1.63;;;1.40;;
20173;SDS011;10246;50.620;7.232;2022-10-16T00:32:52;3.20;;;1.50;;
20173;SDS011;10246;50.620;7.232;2022-10-16T00:35:19;6.53;;;1.50;;
20173;SDS011;10246;50.620;7.232;2022-10-16T00:37:47;3.03;;;1.63;;
20173;SDS011;10246;50.620;7.232;2022-10-16T00:40:14;1.70;;;1.53;;
20173;SDS011;10246;50.620;7.232;2022-10-16T00:42:41;5.90;;;1.80;;
20173;SDS011;10246;50.620;7.232;2022-10-16T00:45:08;2.73;;;1.87;;
20173;SDS011;10246;50.620;7.232;2022-10-16T00:47:36;5.20;;;1.70;;
20173;SDS011;10246;50.620;7.232;2022-10-16T00:50:06;3.83;;;1.30;;
20173;SDS011;10246;50.620;7.232;2022-10-16T00:52:35;2.23;;;1.70;;
20173;SDS011;10246;50.620;7.232;2022-10-16T00:55:08;2.93;;;1.47;;
20173;SDS011;10246;50.620;7.232;2022-10-16T00:57:35;5.83;;;1.70;;
20173;SDS011;10246;50.620;7.232;2022-10-16T01:00:03;2.60;;;1.80;;
20173;SDS011;10246;50.620;7.232;2022-10-16T01:02:32;2.10;;;1.90;;
20173;SDS011;10246;50.620;7.232;2022-10-16T01:04:58;2.43;;;2.10;;
20173;SDS011;10246;50.620;7.232;2022-10-16T01:07:31;2.17;;;1.60;;
20173;SDS011;10246;50.620;7.232;2022-10-16T01:10:08;3.87;;;1.87;;
20173;SDS011;10246;50.620;7.232;2022-10-16T01:12:44;2.20;;;1.80;;
20173;SDS011;10246;50.620;7.232;2022-10-16T01:15:17;2.77;;;1.77;;
20173;SDS011;10246;50.620;7.232;2022-10-16T01:17:51;3.27;;;1.63;;
20173;SDS011;10246;50.620;7.232;2022-10-16T01:20:25;2.80;;;1.70;;
20173;SDS011;10246;50.620;7.232;2022-10-16T01:23:05;2.70;;;1.43;;
20173;SDS011;10246;50.620;7.232;2022-10-16T01:25:52;1.90;;;1.40;;
20173;SDS011;10246;50.620;7.232;2022-10-16T01:28:36;1.70;;;1.50;;
20173;SDS011;10246;50.620;7.232;2022-10-16T01:31:07;2.40;;;1.27;;
20173;SDS011;10246;50.620;7.232;2022-10-16T01:33:38;2.13;;;1.20;;
20173;SDS011;10246;50.620;7.232;2022-10-16T01:36:10;1.93;;;1.40;;
20173;SDS011;10246;50.620;7.232;2022-10-16T01:38:40;1.87;;;1.40;;
20173;SDS011;10246;50.620;7.232;2022-10-16T01:41:13;2.07;;;1.50;;
20173;SDS011;10246;50.620;7.232;2022-10-16T01:43:45;3.73;;;2.23;;
20173;SDS011;10246;50.620;7.232;2022-10-16T01:46:14;2.93;;;2.10;;
20173;SDS011;10246;50.620;7.232;2022-10-16T01:48:44;6.07;;;2.00;;
20173;SDS011;10246;50.620;7.232;2022-10-16T01:51:12;3.77;;;1.70;;
20173;SDS011;10246;50.620;7.232;2022-10-16T01:53:41;3.57;;;1.43;;
20173;SDS011;10246;50.620;7.232;2022-10-16T01:56:12;2.00;;;1.33;;
20173;SDS011;10246;50.620;7.232;2022-10-16T01:58:42;2.77;;;1.47;;
20173;SDS011;10246;50.620;7.232;2022-10-16T02:01:13;1.77;;;1.10;;
20173;SDS011;10246;50.620;7.232;2022-10-16T02:03:44;1.50;;;1.40;;
20173;SDS011;10246;50.620;7.232;2022-10-16T02:06:14;5.43;;;1.37;;
20173;SDS011;10246;50.620;7.232;2022-10-16T02:08:41;2.00;;;1.40;;
20173;SDS011;10246;50.620;7.232;2022-10-16T02:11:09;4.60;;;1.20;;
20173;SDS011;10246;50.620;7.232;2022-10-16T02:13:37;1.97;;;1.23;;
20173;SDS011;10246;50.620;7.232;2022-10-16T02:16:11;1.13;;;1.03;;
20173;SDS011;10246;50.620;7.232;2022-10-16T02:18:39;1.67;;;1.27;;
20173;SDS011;10246;50.620;7.232;2022-10-16T02:21:08;1.80;;;1.20;;
20173;SDS011;10246;50.620;7.232;2022-10-16T02:23:45;1.43;;;1.20;;
20173;SDS011;10246;50.620;7.232;2022-10-16T02:26:18;1.93;;;1.50;;
20173;SDS011;10246;50.620;7.232;2022-10-16T02:28:52;2.40;;;1.60;;
20173;SDS011;10246;50.620;7.232;2022-10-16T02:31:24;2.83;;;1.70;;
20173;SDS011;10246;50.620;7.232;2022-10-16T02:33:54;1.60;;;1.50;;
20173;SDS011;10246;50.620;7.232;2022-10-16T02:36:24;1.73;;;1.60;;
20173;SDS011;10246;50.620;7.232;2022-10-16T02:38:52;1.80;;;1.70;;
20173;SDS011;10246;50.620;7.232;2022-10-16T02:41:20;2.47;;;1.60;;
20173;SDS011;10246;50.620;7.232;2022-10-16T02:43:47;3.40;;;1.80;;
20173;SDS011;10246;50.620;7.232;2022-10-16T02:46:14;3.27;;;1.77;;
20173;SDS011;10246;50.620;7.232;2022-10-16T02:48:42;3.73;;;1.67;;
20173;SDS011;10246;50.620;7.232;2022-10-16T02:51:09;4.23;;;1.70;;
20173;SDS011;10246;50.620;7.232;2022-10-16T02:53:35;3.30;;;2.10;;
20173;SDS011;10246;50.620;7.232;2022-10-16T02:56:02;2.83;;;2.00;;
20173;SDS011;10246;50.620;7.232;2022-10-16T02:58:29;3.57;;;1.83;;
20173;SDS011;10246;50.620;7.232;2022-10-16T03:00:56;2.27;;;1.80;;
20173;SDS011;10246;50.620;7.232;2022-10-16T03:03:23;2.70;;;2.17;;
20173;SDS011;10246;50.620;7.232;2022-10-16T03:05:51;4.63;;;1.80;;
20173;SDS011;10246;50.620;7.232;2022-10-16T03:08:18;1.83;;;1.60;;
20173;SDS011;10246;50.620;7.232;2022-10-16T03:10:48;2.33;;;1.80;;
20173;SDS011;10246;50.620;7.232;2022-10-16T03:13:15;2.07;;;1.70;;
20173;SDS011;10246;50.620;7.232;2022-10-16T03:15:42;1.83;;;1.57;;
20173;SDS011;10246;50.620;7.232;2022-10-16T03:18:09;2.33;;;1.63;;
20173;SDS011;10246;50.620;7.232;2022-10-16T03:20:36;2.30;;;1.40;;
20173;SDS011;10246;50.620;7.232;2022-10-16T03:23:04;2.23;;;1.50;;
20173;SDS011;10246;50.620;7.232;2022-10-16T03:25:33;1.30;;;1.20;;
20173;SDS011;10246;50.620;7.232;2022-10-16T03:27:59;1.87;;;1.70;;
20173;SDS011;10246;50.620;7.232;2022-10-16T03:30:26;1.90;;;1.50;;
20173;SDS011;10246;50.620;7.232;2022-10-16T03:32:53;3.33;;;1.67;;
20173;SDS011;10246;50.620;7.232;2022-10-16T03:35:20;3.63;;;1.30;;
20173;SDS011;10246;50.620;7.232;2022-10-16T03:37:46;1.73;;;1.37;;
20173;SDS011;10246;50.620;7.232;2022-10-16T03:40:15;2.03;;;1.40;;
20173;SDS011;10246;50.620;7.232;2022-10-16T03:42:42;1.53;;;1.20;;
20173;SDS011;10246;50.620;7.232;2022-10-16T03:45:10;1.33;;;1.23;;
20173;SDS011;10246;50.620;7.232;2022-10-16T03:47:36;6.07;;;1.60;;
20173;SDS011;10246;50.620;7.232;2022-10-16T03:50:04;2.20;;;1.47;;
20173;SDS011;10246;50.620;7.232;2022-10-16T03:52:31;1.60;;;1.40;;
20173;SDS011;10246;50.620;7.232;2022-10-16T03:54:58;2.80;;;1.60;;
20173;SDS011;10246;50.620;7.232;2022-10-16T03:57:26;3.73;;;1.37;;
20173;SDS011;10246;50.620;7.232;2022-10-16T03:59:53;2.83;;;1.40;;
20173;SDS011;10246;50.620;7.232;2022-10-16T04:02:20;8.10;;;1.57;;
20173;SDS011;10246;50.620;7.232;2022-10-16T04:04:46;2.77;;;1.53;;
20173;SDS011;10246;50.620;7.232;2022-10-16T04:07:13;2.33;;;1.60;;
20173;SDS011;10246;50.620;7.232;2022-10-16T04:09:40;2.20;;;1.57;;
20173;SDS011;10246;50.620;7.232;2022-10-16T04:12:07;1.50;;;1.40;;
20173;SDS011;10246;50.620;7.232;2022-10-16T04:14:35;3.23;;;2.00;;
20173;SDS011;10246;50.620;7.232;2022-10-16T04:17:02;3.53;;;1.87;;
20173;SDS011;10246;50.620;7.232;2022-10-16T04:19:28;1.70;;;1.60;;
20173;SDS011;10246;50.620;7.232;2022-10-16T04:21:55;1.60;;;1.50;;
20173;SDS011;10246;50.620;7.232;2022-10-16T04:24:22;2.40;;;1.60;;
20173;SDS011;10246;50.620;7.232;2022-10-16T04:26:49;1.70;;;1.50;;
20173;SDS011;10246;50.620;7.232;2022-10-16T04:29:16;3.10;;;1.70;;
20173;SDS011;10246;50.620;7.232;2022-10-16T04:31:44;1.47;;;1.37;;
20173;SDS011;10246;50.620;7.232;2022-10-16T04:34:10;3.43;;;1.47;;
20173;SDS011;10246;50.620;7.232;2022-10-16T04:36:37;2.77;;;1.60;;
20173;SDS011;10246;50.620;7.232;2022-10-16T04:39:04;2.03;;;1.40;;
20173;SDS011;10246;50.620;7.232;2022-10-16T04:41:31;2.57;;;1.40;;
20173;SDS011;10246;50.620;7.232;2022-10-16T04:43:57;5.07;;;1.50;;
20173;SDS011;10246;50.620;7.232;2022-10-16T04:46:24;3.50;;;1.40;;
20173;SDS011;10246;50.620;7.232;2022-10-16T04:48:52;2.20;;;1.20;;
20173;SDS011;10246;50.620;7.232;2022-10-16T04:51:19;2.33;;;1.30;;
20173;SDS011;10246;50.620;7.232;2022-10-16T04:53:46;2.90;;;1.50;;
20173;SDS011;10246;50.620;7.232;2022-10-16T04:56:13;1.40;;;1.30;;
20173;SDS011;10246;50.620;7.232;2022-10-16T04:58:40;1.67;;;1.20;;
20173;SDS011;10246;50.620;7.232;2022-10-16T05:01:07;1.50;;;1.40;;
20173;SDS011;10246;50.620;7.232;2022-10-16T05:03:34;1.40;;;1.23;;
20173;SDS011;10246;50.620;7.232;2022-10-16T05:06:02;2.40;;;1.37;;
20173;SDS011;10246;50.620;7.232;2022-10-16T05:08:31;1.33;;;1.20;;
20173;SDS011;10246;50.620;7.232;2022-10-16T05:10:58;1.47;;;1.37;;
20173;SDS011;10246;50.620;7.232;2022-10-16T05:13:25;1.23;;;1.13;;
20173;SDS011;10246;50.620;7.232;2022-10-16T05:15:52;1.73;;;1.40;;
20173;SDS011;10246;50.620;7.232;2022-10-16T05:18:19;2.77;;;1.40;;
20173;SDS011;10246;50.620;7.232;2022-10-16T05:20:45;1.43;;;1.30;;
20173;SDS011;10246;50.620;7.232;2022-10-16T05:23:14;1.30;;;1.27;;
20173;SDS011;10246;50.620;7.232;2022-10-16T05:25:40;1.70;;;1.20;;
20173;SDS011;10246;50.620;7.232;2022-10-16T05:28:07;2.57;;;1.43;;
20173;SDS011;10246;50.620;7.232;2022-10-16T05:30:34;1.63;;;1.30;;
20173;SDS011;10246;50.620;7.232;2022-10-16T05:33:03;1.77;;;1.60;;
20173;SDS011;10246;50.620;7.232;2022-10-16T05:35:29;1.50;;;1.40;;
20173;SDS011;10246;50.620;7.232;2022-10-16T05:37:56;5.50;;;1.70;;
20173;SDS011;10246;50.620;7.232;2022-10-16T05:40:24;2.73;;;1.83;;
20173;SDS011;10246;50.620;7.232;2022-10-16T05:42:54;1.40;;;1.30;;
20173;SDS011;10246;50.620;7.232;2022-10-16T05:45:21;3.30;;;1.60;;
20173;SDS011;10246;50.620;7.232;2022-10-16T05:47:48;1.80;;;1.43;;
20173;SDS011;10246;50.620;7.232;2022-10-16T05:50:15;2.63;;;1.73;;
20173;SDS011;10246;50.620;7.232;2022-10-16T05:52:41;1.63;;;1.50;;
20173;SDS011;10246;50.620;7.232;2022-10-16T05:55:08;2.77;;;1.50;;
20173;SDS011;10246;50.620;7.232;2022-10-16T05:57:36;1.73;;;1.50;;
20173;SDS011;10246;50.620;7.232;2022-10-16T06:00:04;1.30;;;1.20;;
20173;SDS011;10246;50.620;7.232;2022-10-16T06:02:31;2.87;;;1.30;;
20173;SDS011;10246;50.620;7.232;2022-10-16T06:04:58;3.63;;;1.37;;
20173;SDS011;10246;50.620;7.232;2022-10-16T06:07:25;2.00;;;1.10;;
20173;SDS011;10246;50.620;7.232;2022-10-16T06:09:52;1.60;;;1.30;;
20173;SDS011;10246;50.620;7.232;2022-10-16T06:12:19;1.20;;;1.10;;
20173;SDS011;10246;50.620;7.232;2022-10-16T06:14:47;5.70;;;3.40;;
20173;SDS011;10246;50.620;7.232;2022-10-16T06:17:14;2.07;;;1.83;;
20173;SDS011;10246;50.620;7.232;2022-10-16T06:19:41;1.43;;;1.33;;
20173;SDS011;10246;50.620;7.232;2022-10-16T06:22:08;2.20;;;1.40;;
20173;SDS011;10246;50.620;7.232;2022-10-16T06:24:35;1.50;;;1.30;;
20173;SDS011;10246;50.620;7.232;2022-10-16T06:27:02;1.60;;;1.50;;
20173;SDS011;10246;50.620;7.232;2022-10-16T06:29:29;2.03;;;1.40;;
20173;SDS011;10246;50.620;7.232;2022-10-16T06:31:57;2.17;;;1.20;;
20173;SDS011;10246;50.620;7.232;2022-10-16T06:34:24;1.20;;;1.00;;
20173;SDS011;10246;50.620;7.232;2022-10-16T06:36:51;1.37;;;1.10;;
20173;SDS011;10246;50.620;7.232;2022-10-16T06:39:18;3.10;;;1.10;;
20173;SDS011;10246;50.620;7.232;2022-10-16T06:41:44;3.30;;;1.40;;
20173;SDS011;10246;50.620;7.232;2022-10-16T06:44:11;2.50;;;1.47;;
20173;SDS011;10246;50.620;7.232;2022-10-16T06:46:38;1.33;;;1.23;;
20173;SDS011;10246;50.620;7.232;2022-10-16T06:49:06;3.37;;;1.53;;
20173;SDS011;10246;50.620;7.232;2022-10-16T06:51:33;1.30;;;1.20;;
20173;SDS011;10246;50.620;7.232;2022-10-16T06:54:01;3.50;;;1.47;;
20173;SDS011;10246;50.620;7.232;2022-10-16T06:56:28;1.50;;;1.37;;
20173;SDS011;10246;50.620;7.232;2022-10-16T06:58:56;3.17;;;1.60;;
20173;SDS011;10246;50.620;7.232;2022-10-16T07:01:23;1.40;;;1.20;;
20173;SDS011;10246;50.620;7.232;2022-10-16T07:03:51;2.53;;;1.23;;
20173;SDS011;10246;50.620;7.232;2022-10-16T07:06:20;1.33;;;0.90;;
20173;SDS011;10246;50.620;7.232;2022-10-16T07:08:48;1.10;;;0.97;;
20173;SDS011;10246;50.620;7.232;2022-10-16T07:11:15;1.80;;;0.90;;
20173;SDS011;10246;50.620;7.232;2022-10-16T07:13:44;1.80;;;0.90;;
20173;SDS011;10246;50.620;7.232;2022-10-16T07:16:12;2.10;;;0.80;;
20173;SDS011;10246;50.620;7.232;2022-10-16T07:18:40;2.77;;;0.80;;
20173;SDS011;10246;50.620;7.232;2022-10-16T07:21:11;1.50;;;0.70;;
20173;SDS011;10246;50.620;7.232;2022-10-16T07:23:40;0.97;;;0.70;;
20173;SDS011;10246;50.620;7.232;2022-10-16T07:26:09;0.90;;;0.80;;
20173;SDS011;10246;50.620;7.232;2022-10-16T07:28:38;1.00;;;0.90;;
20173;SDS011;10246;50.620;7.232;2022-10-16T07:31:06;1.10;;;0.97;;
20173;SDS011;10246;50.620;7.232;2022-10-16T07:33:35;1.10;;;0.90;;
20173;SDS011;10246;50.620;7.232;2022-10-16T07:36:04;0.83;;;0.83;;
20173;SDS011;10246;50.620;7.232;2022-10-16T07:38:31;1.40;;;1.30;;
20173;SDS011;10246;50.620;7.232;2022-10-16T07:40:59;1.20;;;1.10;;
20173;SDS011;10246;50.620;7.232;2022-10-16T07:43:27;1.87;;;1.40;;
20173;SDS011;10246;50.620;7.232;2022-10-16T07:45:54;1.63;;;1.30;;
20173;SDS011;10246;50.620;7.232;2022-10-16T07:48:21;1.83;;;1.30;;
20173;SDS011;10246;50.620;7.232;2022-10-16T07:50:49;1.83;;;1.73;;
20173;SDS011;10246;50.620;7.232;2022-10-16T07:53:16;3.13;;;1.13;;
20173;SDS011;10246;50.620;7.232;2022-10-16T07:55:43;1.30;;;1.20;;
20173;SDS011;10246;50.620;7.232;2022-10-16T07:58:11;1.50;;;1.40;;
20173;SDS011;10246;50.620;7.232;2022-10-16T08:00:37;2.27;;;1.63;;
20173;SDS011;10246;50.620;7.232;2022-10-16T08:03:04;1.50;;;1.40;;
20173;SDS011;10246;50.620;7.232;2022-10-16T08:05:32;1.50;;;1.40;;
20173;SDS011;10246;50.620;7.232;2022-10-16T08:07:59;1.47;;;1.30;;
20173;SDS011;10246;50.620;7.232;2022-10-16T08:10:27;2.17;;;1.60;;
20173;SDS011;10246;50.620;7.232;2022-10-16T08:12:54;1.47;;;1.37;;
20173;SDS011;10246;50.620;7.232;2022-10-16T08:15:22;1.73;;;1.30;;
20173;SDS011;10246;50.620;7.232;2022-10-16T08:17:56;1.23;;;1.13;;
20173;SDS011;10246;50.620;7.232;2022-10-16T08:20:24;2.23;;;1.33;;
20173;SDS011;10246;50.620;7.232;2022-10-16T08:22:51;1.17;;;0.90;;
20173;SDS011;10246;50.620;7.232;2022-10-16T08:25:18;1.37;;;0.83;;
20173;SDS011;10246;50.620;7.232;2022-10-16T08:27:45;1.93;;;1.10;;
20173;SDS011;10246;50.620;7.232;2022-10-16T08:30:13;3.53;;;1.80;;
20173;SDS011;10246;50.620;7.232;2022-10-16T08:32:41;2.47;;;1.87;;
20173;SDS011;10246;50.620;7.232;2022-10-16T08:35:08;2.40;;;1.30;;
20173;SDS011;10246;50.620;7.232;2022-10-16T08:37:35;1.00;;;0.93;;
20173;SDS011;10246;50.620;7.232;2022-10-16T08:40:03;0.70;;;0.70;;
20173;SDS011;10246;50.620;7.232;2022-10-16T08:42:35;1.53;;;0.90;;
20173;SDS011;10246;50.620;7.232;2022-10-16T08:45:34;1.07;;;0.70;;
20173;SDS011;10246;50.620;7.232;2022-10-16T08:48:14;1.43;;;0.60;;
20173;SDS011;10246;50.620;7.232;2022-10-16T08:50:46;0.90;;;0.73;;
20173;SDS011;10246;50.620;7.232;2022-10-16T08:53:16;2.03;;;1.10;;
20173;SDS011;10246;50.620;7.232;2022-10-16T08:55:49;0.70;;;0.70;;
20173;SDS011;10246;50.620;7.232;2022-10-16T08:58:18;1.23;;;0.90;;
20173;SDS011;10246;50.620;7.232;2022-10-16T09:00:46;0.87;;;0.80;;
20173;SDS011;10246;50.620;7.232;2022-10-16T09:03:30;1.10;;;0.70;;
20173;SDS011;10246;50.620;7.232;2022-10-16T09:06:16;0.60;;;0.60;;
20173;SDS011;10246;50.620;7.232;2022-10-16T09:08:55;0.97;;;0.73;;
20173;SDS011;10246;50.620;7.232;2022-10-16T09:11:38;0.73;;;0.73;;
20173;SDS011;10246;50.620;7.232;2022-10-16T09:14:17;1.53;;;0.73;;
20173;SDS011;10246;50.620;7.232;2022-10-16T09:17:03;1.40;;;0.70;;
20173;SDS011;10246;50.620;7.232;2022-10-16T09:19:41;0.50;;;0.50;;
20173;SDS011;10246;50.620;7.232;2022-10-16T09:22:12;1.60;;;0.70;;
20173;SDS011;10246;50.620;7.232;2022-10-16T09:24:41;1.13;;;0.60;;
20173;SDS011;10246;50.620;7.232;2022-10-16T09:27:08;1.33;;;0.67;;
20173;SDS011;10246;50.620;7.232;2022-10-16T09:29:37;0.50;;;0.50;;
20173;SDS011;10246;50.620;7.232;2022-10-16T09:32:08;0.50;;;0.50;;
20173;SDS011;10246;50.620;7.232;2022-10-16T09:34:41;1.03;;;0.80;;
20173;SDS011;10246;50.620;7.232;2022-10-16T09:37:12;0.73;;;0.60;;
20173;SDS011;10246;50.620;7.232;2022-10-16T09:39:46;0.50;;;0.50;;
20173;SDS011;10246;50.620;7.232;2022-10-16T09:42:15;1.00;;;0.70;;
20173;SDS011;10246;50.620;7.232;2022-10-16T09:44:46;1.17;;;0.87;;
20173;SDS011;10246;50.620;7.232;2022-10-16T09:47:15;1.13;;;0.70;;
20173;SDS011;10246;50.620;7.232;2022-10-16T09:49:52;0.60;;;0.50;;
20173;SDS011;10246;50.620;7.232;2022-10-16T09:52:22;1.13;;;0.53;;
20173;SDS011;10246;50.620;7.232;2022-10-16T09:54:50;1.77;;;0.60;;
20173;SDS011;10246;50.620;7.232;2022-10-16T09:57:17;1.83;;;0.60;;
20173;SDS011;10246;50.620;7.232;2022-10-16T09:59:47;0.80;;;0.80;;
20173;SDS011;10246;50.620;7.232;2022-10-16T10:02:16;1.03;;;0.50;;
20173;SDS011;10246;50.620;7.232;2022-10-16T10:04:48;1.10;;;0.73;;
20173;SDS011;10246;50.620;7.232;2022-10-16T10:07:20;1.27;;;0.80;;
20173;SDS011;10246;50.620;7.232;2022-10-16T10:09:50;0.50;;;0.50;;
20173;SDS011;10246;50.620;7.232;2022-10-16T10:12:18;0.70;;;0.70;;
20173;SDS011;10246;50.620;7.232;2022-10-16T10:14:47;2.07;;;0.70;;
20173;SDS011;10246;50.620;7.232;2022-10-16T10:17:16;1.03;;;0.70;;
20173;SDS011;10246;50.620;7.232;2022-10-16T10:19:52;0.87;;;0.63;;
20173;SDS011;10246;50.620;7.232;2022-10-16T10:22:26;0.50;;;0.50;;
20173;SDS011;10246;50.620;7.232;2022-10-16T10:25:10;1.23;;;0.70;;
20173;SDS011;10246;50.620;7.232;2022-10-16T10:27:53;0.50;;;0.50;;
20173;SDS011;10246;50.620;7.232;2022-10-16T10:30:32;0.50;;;0.50;;
20173;SDS011;10246;50.620;7.232;2022-10-16T10:33:13;1.33;;;0.63;;
20173;SDS011;10246;50.620;7.232;2022-10-16T10:35:52;0.50;;;0.50;;
20173;SDS011;10246;50.620;7.232;2022-10-16T10:38:28;1.40;;;0.63;;
20173;SDS011;10246;50.620;7.232;2022-10-16T10:41:17;0.40;;;0.40;;
20173;SDS011;10246;50.620;7.232;2022-10-16T10:44:01;0.50;;;0.50;;
20173;SDS011;10246;50.620;7.232;2022-10-16T10:46:39;0.83;;;0.50;;
20173;SDS011;10246;50.620;7.232;2022-10-16T10:49:12;0.53;;;0.50;;
20173;SDS011;10246;50.620;7.232;2022-10-16T10:51:53;0.83;;;0.70;;
20173;SDS011;10246;50.620;7.232;2022-10-16T10:54:31;0.60;;;0.50;;
20173;SDS011;10246;50.620;7.232;2022-10-16T10:57:07;1.43;;;0.60;;
20173;SDS011;10246;50.620;7.232;2022-10-16T10:59:48;1.13;;;0.83;;
20173;SDS011;10246;50.620;7.232;2022-10-16T11:02:26;0.40;;;0.40;;
20173;SDS011;10246;50.620;7.232;2022-10-16T11:05:12;0.60;;;0.50;;
20173;SDS011;10246;50.620;7.232;2022-10-16T11:08:04;0.40;;;0.40;;
20173;SDS011;10246;50.620;7.232;2022-10-16T11:10:40;0.50;;;0.50;;
20173;SDS011;10246;50.620;7.232;2022-10-16T11:13:15;0.50;;;0.50;;
20173;SDS011;10246;50.620;7.232;2022-10-16T11:15:50;0.73;;;0.60;;
20173;SDS011;10246;50.620;7.232;2022-10-16T11:21:25;0.70;;;0.60;;
20173;SDS011;10246;50.620;7.232;2022-10-16T11:23:57;0.50;;;0.50;;
20173;SDS011;10246;50.620;7.232;2022-10-16T11:26:32;1.10;;;0.60;;
20173;SDS011;10246;50.620;7.232;2022-10-16T11:29:02;0.50;;;0.50;;
20173;SDS011;10246;50.620;7.232;2022-10-16T11:31:36;0.47;;;0.40;;
20173;SDS011;10246;50.620;7.232;2022-10-16T11:34:06;0.60;;;0.60;;
20173;SDS011;10246;50.620;7.232;2022-10-16T11:36:43;0.67;;;0.60;;
20173;SDS011;10246;50.620;7.232;2022-10-16T11:39:18;0.50;;;0.50;;
20173;SDS011;10246;50.620;7.232;2022-10-16T11:41:49;1.10;;;0.50;;
20173;SDS011;10246;50.620;7.232;2022-10-16T11:44:26;0.40;;;0.30;;
20173;SDS011;10246;50.620;7.232;2022-10-16T11:47:01;0.70;;;0.40;;
20173;SDS011;10246;50.620;7.232;2022-10-16T11:49:38;0.37;;;0.30;;
20173;SDS011;10246;50.620;7.232;2022-10-16T11:52:10;0.70;;;0.50;;
20173;SDS011;10246;50.620;7.232;2022-10-16T11:54:44;0.33;;;0.30;;
20173;SDS011;10246;50.620;7.232;2022-10-16T11:57:17;0.83;;;0.50;;
20173;SDS011;10246;50.620;7.232;2022-10-16T11:59:47;0.50;;;0.50;;
20173;SDS011;10246;50.620;7.232;2022-10-16T12:02:26;0.50;;;0.50;;
20173;SDS011;10246;50.620;7.232;2022-10-16T12:05:02;2.47;;;0.43;;
20173;SDS011;10246;50.620;7.232;2022-10-16T12:07:38;1.03;;;0.50;;
20173;SDS011;10246;50.620;7.232;2022-10-16T12:10:11;0.40;;;0.40;;
20173;SDS011;10246;50.620;7.232;2022-10-16T12:12:48;0.40;;;0.40;;
20173;SDS011;10246;50.620;7.232;2022-10-16T12:15:21;1.70;;;0.60;;
20173;SDS011;10246;50.620;7.232;2022-10-16T12:17:49;0.50;;;0.40;;
20173;SDS011;10246;50.620;7.232;2022-10-16T12:20:24;1.53;;;0.50;;
20173;SDS011;10246;50.620;7.232;2022-10-16T12:22:56;0.63;;;0.50;;
20173;SDS011;10246;50.620;7.232;2022-10-16T12:25:25;0.60;;;0.40;;
20173;SDS011;10246;50.620;7.232;2022-10-16T12:28:04;1.70;;;0.43;;
20173;SDS011;10246;50.620;7.232;2022-10-16T12:30:34;2.13;;;0.50;;
20173;SDS011;10246;50.620;7.232;2022-10-16T12:33:02;0.50;;;0.40;;
20173;SDS011;10246;50.620;7.232;2022-10-16T12:35:32;0.93;;;0.60;;
20173;SDS011;10246;50.620;7.232;2022-10-16T12:38:04;0.40;;;0.40;;
20173;SDS011;10246;50.620;7.232;2022-10-16T12:40:40;0.60;;;0.40;;
20173;SDS011;10246;50.620;7.232;2022-10-16T12:46:04;1.57;;;0.50;;
20173;SDS011;10246;50.620;7.232;2022-10-16T12:48:46;0.73;;;0.50;;
20173;SDS011;10246;50.620;7.232;2022-10-16T12:51:21;0.60;;;0.60;;
20173;SDS011;10246;50.620;7.232;2022-10-16T12:53:59;1.83;;;0.57;;
20173;SDS011;10246;50.620;7.232;2022-10-16T12:56:30;0.50;;;0.50;;
20173;SDS011;10246;50.620;7.232;2022-10-16T12:59:11;0.67;;;0.50;;
20173;SDS011;10246;50.620;7.232;2022-10-16T13:01:52;0.50;;;0.50;;
20173;SDS011;10246;50.620;7.232;2022-10-16T13:04:37;1.13;;;0.57;;
20173;SDS011;10246;50.620;7.232;2022-10-16T13:07:19;0.50;;;0.50;;
20173;SDS011;10246;50.620;7.232;2022-10-16T13:10:02;0.40;;;0.40;;
20173;SDS011;10246;50.620;7.232;2022-10-16T13:12:50;0.47;;;0.47;;
20173;SDS011;10246;50.620;7.232;2022-10-16T13:15:50;0.67;;;0.50;;
20173;SDS011;10246;50.620;7.232;2022-10-16T13:18:29;1.63;;;0.63;;
20173;SDS011;10246;50.620;7.232;2022-10-16T13:21:08;1.53;;;0.57;;
20173;SDS011;10246;50.620;7.232;2022-10-16T13:23:52;0.43;;;0.43;;
20173;SDS011;10246;50.620;7.232;2022-10-16T13:26:30;0.70;;;0.60;;
20173;SDS011;10246;50.620;7.232;2022-10-16T13:29:03;0.50;;;0.50;;
20173;SDS011;10246;50.620;7.232;2022-10-16T13:31:32;0.60;;;0.60;;
20173;SDS011;10246;50.620;7.232;2022-10-16T13:33:59;0.63;;;0.50;;
20173;SDS011;10246;50.620;7.232;2022-10-16T13:36:27;0.43;;;0.43;;
20173;SDS011;10246;50.620;7.232;2022-10-16T13:39:00;0.40;;;0.40;;
20173;SDS011;10246;50.620;7.232;2022-10-16T13:41:36;2.13;;;0.60;;
20173;SDS011;10246;50.620;7.232;2022-10-16T13:44:03;0.40;;;0.40;;
20173;SDS011;10246;50.620;7.232;2022-10-16T13:46:35;1.47;;;0.60;;
20173;SDS011;10246;50.620;7.232;2022-10-16T13:49:03;1.60;;;0.60;;
20173;SDS011;10246;50.620;7.232;2022-10-16T13:51:32;0.73;;;0.53;;
20173;SDS011;10246;50.620;7.232;2022-10-16T13:53:59;5.00;;;0.80;;
20173;SDS011;10246;50.620;7.232;2022-10-16T13:56:26;0.73;;;0.70;;
20173;SDS011;10246;50.620;7.232;2022-10-16T13:58:58;3.10;;;0.70;;
20173;SDS011;10246;50.620;7.232;2022-10-16T14:01:29;1.07;;;0.60;;
20173;SDS011;10246;50.620;7.232;2022-10-16T14:04:02;0.83;;;0.60;;
20173;SDS011;10246;50.620;7.232;2022-10-16T14:06:31;1.30;;;0.60;;
20173;SDS011;10246;50.620;7.232;2022-10-16T14:08:59;0.53;;;0.50;;
20173;SDS011;10246;50.620;7.232;2022-10-16T14:11:30;1.43;;;0.60;;
20173;SDS011;10246;50.620;7.232;2022-10-16T14:13:58;0.50;;;0.50;;
20173;SDS011;10246;50.620;7.232;2022-10-16T14:16:28;0.70;;;0.40;;
20173;SDS011;10246;50.620;7.232;2022-10-16T14:18:57;0.67;;;0.60;;
20173;SDS011;10246;50.620;7.232;2022-10-16T14:21:27;1.53;;;0.70;;
20173;SDS011;10246;50.620;7.232;2022-10-16T14:23:55;0.67;;;0.50;;
20173;SDS011;10246;50.620;7.232;2022-10-16T14:26:23;0.50;;;0.50;;
20173;SDS011;10246;50.620;7.232;2022-10-16T14:29:03;1.00;;;0.73;;
20173;SDS011;10246;50.620;7.232;2022-10-16T14:31:36;1.33;;;0.50;;
20173;SDS011;10246;50.620;7.232;2022-10-16T14:34:05;2.23;;;0.60;;
20173;SDS011;10246;50.620;7.232;2022-10-16T14:36:53;1.43;;;0.70;;
20173;SDS011;10246;50.620;7.232;2022-10-16T14:39:21;1.03;;;0.47;;
20173;SDS011;10246;50.620;7.232;2022-10-16T14:41:51;0.90;;;0.70;;
20173;SDS011;10246;50.620;7.232;2022-10-16T14:44:22;0.50;;;0.50;;
20173;SDS011;10246;50.620;7.232;2022-10-16T14:46:55;1.20;;;0.60;;
20173;SDS011;10246;50.620;7.232;2022-10-16T14:49:22;0.60;;;0.60;;
20173;SDS011;10246;50.620;7.232;2022-10-16T14:51:50;0.70;;;0.70;;
20173;SDS011;10246;50.620;7.232;2022-10-16T14:54:18;1.03;;;0.60;;
20173;SDS011;10246;50.620;7.232;2022-10-16T14:56:47;0.50;;;0.50;;
20173;SDS011;10246;50.620;7.232;2022-10-16T14:59:16;0.60;;;0.60;;
20173;SDS011;10246;50.620;7.232;2022-10-16T15:01:46;0.50;;;0.50;;
20173;SDS011;10246;50.620;7.232;2022-10-16T15:04:13;0.97;;;0.50;;
20173;SDS011;10246;50.620;7.232;2022-10-16T15:06:42;0.50;;;0.50;;
20173;SDS011;10246;50.620;7.232;2022-10-16T15:09:09;0.50;;;0.50;;
20173;SDS011;10246;50.620;7.232;2022-10-16T15:11:37;0.60;;;0.60;;
20173;SDS011;10246;50.620;7.232;2022-10-16T15:14:05;1.83;;;0.60;;